createdAt,value
2017-12-25T00:01:09.622Z,9.73
2017-12-25T00:03:36.131Z,8.68
2017-12-25T00:06:03.315Z,9.65
2017-12-25T00:08:29.816Z,10.70
2017-12-25T00:10:57.019Z,7.35
2017-12-25T00:13:23.487Z,6.45
2017-12-25T00:15:49.939Z,8.43
2017-12-25T00:18:17.124Z,9.55
2017-12-25T00:20:43.606Z,9.15
2017-12-25T00:23:10.232Z,6.35
2017-12-25T00:25:36.813Z,9.18
2017-12-25T00:28:03.268Z,9.57
2017-12-25T00:30:29.716Z,10.90
2017-12-25T00:32:56.195Z,9.90
2017-12-25T00:35:23.396Z,8.35
2017-12-25T00:37:49.840Z,11.05
2017-12-25T00:40:16.316Z,11.52
2017-12-25T00:42:43.652Z,10.05
2017-12-25T00:45:10.192Z,10.68
2017-12-25T00:47:36.696Z,10.70
2017-12-25T00:50:03.188Z,10.90
2017-12-25T00:52:29.673Z,11.02
2017-12-25T00:54:56.188Z,10.63
2017-12-25T00:57:22.727Z,8.48
2017-12-25T00:59:49.253Z,11.43
2017-12-25T01:02:15.762Z,10.95
2017-12-25T01:04:42.198Z,8.85
2017-12-25T01:07:08.711Z,9.23
2017-12-25T01:09:35.903Z,9.75
2017-12-25T01:12:02.408Z,8.20
2017-12-25T01:14:29.653Z,11.05
2017-12-25T01:16:56.847Z,10.63
2017-12-25T01:19:23.335Z,10.30
2017-12-25T01:21:50.598Z,12.15
2017-12-25T01:24:17.887Z,10.18
2017-12-25T01:26:44.404Z,7.62
2017-12-25T01:29:10.856Z,10.73
2017-12-25T01:31:37.324Z,8.68
2017-12-25T01:34:03.775Z,11.02
2017-12-25T01:36:31.118Z,11.07
2017-12-25T01:38:58.391Z,10.65
2017-12-25T01:41:25.639Z,10.13
2017-12-25T01:43:52.879Z,8.82
2017-12-25T01:46:20.116Z,10.50
2017-12-25T01:48:47.351Z,11.82
2017-12-25T01:51:13.963Z,11.75
2017-12-25T01:53:44.195Z,9.38
2017-12-25T01:59:13.860Z,6.05
2017-12-25T02:01:47.309Z,9.68
2017-12-25T02:04:16.654Z,10.82
2017-12-25T02:06:55.276Z,11.98
2017-12-25T02:09:28.581Z,11.10
2017-12-25T02:11:55.700Z,10.00
2017-12-25T02:14:22.132Z,12.10
2017-12-25T02:16:48.511Z,10.60
2017-12-25T02:19:14.916Z,9.40
2017-12-25T02:21:42.018Z,10.35
2017-12-25T02:24:08.441Z,9.95
2017-12-25T02:26:34.959Z,9.30
2017-12-25T02:29:01.322Z,9.98
2017-12-25T02:31:27.797Z,11.05
2017-12-25T02:33:54.184Z,10.82
2017-12-25T02:36:20.665Z,10.60
2017-12-25T02:38:47.855Z,8.50
2017-12-25T02:41:21.281Z,10.82
2017-12-25T02:43:47.726Z,11.80
2017-12-25T02:46:14.277Z,11.15
2017-12-25T02:48:40.652Z,11.32
2017-12-25T02:51:07.139Z,10.20
2017-12-25T02:53:34.258Z,10.63
2017-12-25T02:56:00.665Z,11.35
2017-12-25T02:58:27.180Z,6.78
2017-12-25T03:00:53.689Z,9.77
2017-12-25T03:03:20.820Z,11.10
2017-12-25T03:05:47.271Z,9.35
2017-12-25T03:08:14.432Z,8.40
2017-12-25T03:10:40.917Z,9.00
2017-12-25T03:13:07.349Z,10.82
2017-12-25T03:15:33.780Z,10.60
2017-12-25T03:18:00.174Z,11.40
2017-12-25T03:20:26.633Z,9.70
2017-12-25T03:22:53.040Z,11.90
2017-12-25T03:25:19.434Z,10.63
2017-12-25T03:27:46.626Z,11.12
2017-12-25T03:30:13.036Z,10.45
2017-12-25T03:32:40.247Z,10.88
2017-12-25T03:35:06.630Z,11.48
2017-12-25T03:37:33.049Z,10.70
2017-12-25T03:40:00.466Z,11.63
2017-12-25T03:42:26.872Z,12.25
2017-12-25T03:44:53.376Z,9.75
2017-12-25T03:47:19.773Z,9.15
2017-12-25T03:49:46.221Z,11.40
2017-12-25T03:52:13.445Z,10.10
2017-12-25T03:54:40.599Z,10.60
2017-12-25T03:57:06.982Z,12.45
2017-12-25T03:59:33.369Z,12.93
2017-12-25T04:01:59.796Z,11.80
2017-12-25T04:04:26.198Z,11.52
2017-12-25T04:06:52.669Z,11.02
2017-12-25T04:09:19.055Z,12.25
2017-12-25T04:11:45.483Z,12.05
2017-12-25T04:14:11.885Z,10.50
2017-12-25T04:16:38.978Z,10.40
2017-12-25T04:19:05.543Z,12.70
2017-12-25T04:21:31.910Z,8.57
2017-12-25T04:23:58.290Z,11.32
2017-12-25T04:26:24.742Z,10.93
2017-12-25T04:28:51.151Z,12.37
2017-12-25T04:31:17.544Z,9.88
2017-12-25T04:33:43.980Z,11.18
2017-12-25T04:36:10.405Z,11.52
2017-12-25T04:38:36.785Z,11.95
2017-12-25T04:41:03.152Z,11.02
2017-12-25T04:43:30.321Z,11.77
2017-12-25T04:45:56.733Z,11.48
2017-12-25T04:48:23.852Z,11.80
2017-12-25T04:50:50.234Z,12.43
2017-12-25T04:53:16.664Z,9.60
2017-12-25T04:55:43.038Z,10.70
2017-12-25T04:58:09.390Z,11.05
2017-12-25T05:00:35.881Z,11.32
2017-12-25T05:03:02.253Z,12.63
2017-12-25T05:05:28.621Z,10.15
2017-12-25T05:07:55.141Z,11.38
2017-12-25T05:10:22.428Z,10.05
2017-12-25T05:12:49.053Z,11.30
2017-12-25T05:15:15.452Z,9.80
2017-12-25T05:17:42.597Z,9.85
2017-12-25T05:20:09.107Z,10.32
2017-12-25T05:22:35.596Z,10.20
2017-12-25T05:25:02.026Z,9.15
2017-12-25T05:27:28.477Z,7.53
2017-12-25T05:29:54.861Z,8.55
2017-12-25T05:32:21.997Z,8.23
2017-12-25T05:34:48.379Z,8.82
2017-12-25T05:37:14.789Z,7.72
2017-12-25T05:39:41.145Z,8.55
2017-12-25T05:42:07.515Z,7.43
2017-12-25T05:44:34.013Z,7.50
2017-12-25T05:47:00.388Z,6.75
2017-12-25T05:49:26.809Z,9.43
2017-12-25T05:51:53.273Z,7.65
2017-12-25T05:54:20.646Z,7.07
2017-12-25T05:56:47.040Z,7.57
2017-12-25T05:59:13.422Z,8.25
2017-12-25T06:01:39.841Z,8.00
2017-12-25T06:04:06.214Z,7.25
2017-12-25T06:06:33.325Z,8.02
2017-12-25T06:08:59.738Z,6.30
2017-12-25T06:11:26.185Z,6.47
2017-12-25T06:13:52.585Z,7.72
2017-12-25T06:16:19.714Z,6.35
2017-12-25T06:18:46.201Z,6.40
2017-12-25T06:21:12.721Z,6.32
2017-12-25T06:23:39.100Z,6.65
2017-12-25T06:26:05.538Z,6.57
2017-12-25T06:28:31.925Z,6.15
2017-12-25T06:30:58.305Z,5.45
2017-12-25T06:33:24.786Z,4.97
2017-12-25T06:35:51.165Z,5.18
2017-12-25T06:38:17.559Z,5.82
2017-12-25T06:40:44.010Z,5.10
2017-12-25T06:43:10.438Z,6.18
2017-12-25T06:45:36.813Z,5.50
2017-12-25T06:48:03.202Z,4.68
2017-12-25T06:50:29.623Z,5.95
2017-12-25T06:52:55.982Z,6.35
2017-12-25T06:55:22.564Z,5.68
2017-12-25T06:57:49.740Z,6.72
2017-12-25T07:00:16.143Z,6.78
2017-12-25T07:02:43.253Z,6.00
2017-12-25T07:05:09.628Z,5.50
2017-12-25T07:07:36.161Z,5.70
2017-12-25T07:10:03.281Z,6.22
2017-12-25T07:12:29.674Z,5.90
2017-12-25T07:14:56.137Z,5.55
2017-12-25T07:17:22.507Z,5.93
2017-12-25T07:19:48.909Z,5.05
2017-12-25T07:22:15.273Z,5.50
2017-12-25T07:24:41.854Z,5.87
2017-12-25T07:27:08.265Z,5.47
2017-12-25T07:29:34.683Z,6.25
2017-12-25T07:32:01.049Z,5.57
2017-12-25T07:34:27.476Z,6.00
2017-12-25T07:36:53.841Z,6.18
2017-12-25T07:39:20.961Z,5.30
2017-12-25T07:41:47.351Z,6.40
2017-12-25T07:44:13.770Z,5.85
2017-12-25T07:46:40.999Z,6.95
2017-12-25T07:49:07.403Z,5.50
2017-12-25T07:51:33.758Z,6.97
2017-12-25T07:54:00.167Z,6.03
2017-12-25T07:56:26.554Z,6.45
2017-12-25T07:58:52.941Z,6.12
2017-12-25T08:01:19.378Z,6.55
2017-12-25T08:03:45.741Z,5.68
2017-12-25T08:06:12.878Z,5.55
2017-12-25T08:08:40.006Z,5.65
2017-12-25T08:11:07.246Z,7.80
2017-12-25T08:13:33.632Z,6.30
2017-12-25T08:16:06.955Z,8.38
2017-12-25T08:18:33.381Z,6.57
2017-12-25T08:20:59.761Z,6.05
2017-12-25T08:23:26.928Z,4.97
2017-12-25T08:25:53.385Z,4.60
2017-12-25T08:28:19.772Z,4.22
2017-12-25T08:30:46.958Z,4.30
2017-12-25T08:33:13.317Z,4.65
2017-12-25T08:35:39.714Z,4.10
2017-12-25T08:38:06.105Z,4.40
2017-12-25T08:40:32.550Z,4.53
2017-12-25T08:42:59.849Z,4.60
2017-12-25T08:45:26.216Z,4.00
2017-12-25T08:47:52.632Z,3.92
2017-12-25T08:50:19.089Z,4.20
2017-12-25T08:52:45.533Z,3.80
2017-12-25T08:55:12.632Z,4.62
2017-12-25T08:57:39.017Z,4.47
2017-12-25T09:00:06.213Z,4.90
2017-12-25T09:02:32.670Z,4.40
2017-12-25T09:04:59.115Z,4.53
2017-12-25T09:07:25.522Z,4.82
2017-12-25T09:09:51.968Z,4.80
2017-12-25T09:12:18.410Z,4.50
2017-12-25T09:14:44.967Z,4.35
2017-12-25T09:17:12.088Z,4.03
2017-12-25T09:19:38.518Z,4.05
2017-12-25T09:22:04.916Z,4.75
2017-12-25T09:24:31.382Z,4.12
2017-12-25T09:26:57.811Z,3.90
2017-12-25T09:29:24.158Z,4.05
2017-12-25T09:31:50.560Z,4.87
2017-12-25T09:34:16.993Z,4.30
2017-12-25T09:36:43.420Z,3.95
2017-12-25T09:39:16.855Z,4.50
2017-12-25T09:41:44.027Z,5.28
2017-12-25T09:44:10.439Z,4.10
2017-12-25T09:46:37.628Z,4.12
2017-12-25T09:49:04.105Z,4.47
2017-12-25T09:51:30.592Z,4.12
2017-12-25T09:53:57.021Z,5.20
2017-12-25T09:56:30.505Z,4.18
2017-12-25T09:58:56.956Z,4.93
2017-12-25T10:01:23.346Z,5.45
2017-12-25T10:03:50.533Z,4.12
2017-12-25T10:06:16.939Z,4.10
2017-12-25T10:08:45.031Z,4.30
2017-12-25T10:11:11.431Z,4.80
2017-12-25T10:13:38.842Z,5.05
2017-12-25T10:16:05.487Z,4.90
2017-12-25T10:18:32.105Z,5.50
2017-12-25T10:20:58.523Z,4.75
2017-12-25T10:23:24.957Z,4.68
2017-12-25T10:25:51.446Z,5.55
2017-12-25T10:28:17.821Z,6.60
2017-12-25T10:30:44.285Z,5.35
2017-12-25T10:33:10.665Z,5.37
2017-12-25T10:35:37.814Z,5.00
2017-12-25T10:38:04.225Z,5.72
2017-12-25T10:40:30.669Z,5.95
2017-12-25T10:42:57.944Z,4.85
2017-12-25T10:45:24.337Z,3.67
2017-12-25T10:47:50.729Z,3.72
2017-12-25T10:50:17.184Z,2.72
2017-12-25T10:52:43.609Z,2.75
2017-12-25T10:55:10.070Z,4.22
2017-12-25T10:57:36.490Z,5.20
2017-12-25T11:00:02.995Z,3.40
2017-12-25T11:02:29.385Z,5.82
2017-12-25T11:04:56.618Z,3.20
2017-12-25T11:07:22.990Z,5.80
2017-12-25T11:09:49.420Z,5.12
2017-12-25T11:12:15.808Z,5.20
2017-12-25T11:14:42.192Z,4.72
2017-12-25T11:17:08.591Z,5.50
2017-12-25T11:19:35.740Z,4.50
2017-12-25T11:22:02.885Z,4.93
2017-12-25T11:24:30.018Z,5.32
2017-12-25T11:26:56.450Z,4.82
2017-12-25T11:29:22.850Z,5.65
2017-12-25T11:31:49.235Z,6.40
2017-12-25T11:34:16.396Z,6.80
2017-12-25T11:36:42.821Z,6.30
2017-12-25T11:39:10.022Z,5.60
2017-12-25T11:41:36.438Z,6.28
2017-12-25T11:44:02.833Z,5.25
2017-12-25T11:46:29.950Z,6.93
2017-12-25T11:48:56.385Z,5.25
2017-12-25T11:51:22.767Z,5.55
2017-12-25T11:53:49.205Z,6.25
2017-12-25T11:56:15.702Z,7.20
2017-12-25T11:58:42.862Z,7.00
2017-12-25T12:01:09.226Z,8.07
2017-12-25T12:03:35.658Z,8.50
2017-12-25T12:06:02.072Z,7.87
2017-12-25T12:08:28.569Z,8.05
2017-12-25T12:10:55.713Z,6.00
2017-12-25T12:13:22.136Z,7.20
2017-12-25T12:15:48.633Z,7.60
2017-12-25T12:18:15.069Z,7.97
2017-12-25T12:20:41.520Z,9.48
2017-12-25T12:23:07.893Z,9.40
2017-12-25T12:25:35.135Z,10.68
2017-12-25T12:28:02.293Z,10.23
2017-12-25T12:30:29.414Z,9.83
2017-12-25T12:32:55.833Z,9.20
2017-12-25T12:35:22.196Z,11.13
2017-12-25T12:37:49.348Z,6.83
2017-12-25T12:40:16.502Z,7.83
2017-12-25T12:42:43.661Z,12.40
2017-12-25T12:45:10.785Z,9.60
2017-12-25T12:47:37.165Z,11.70
2017-12-25T12:50:03.690Z,11.00
2017-12-25T12:52:30.050Z,11.03
2017-12-25T12:54:56.473Z,10.53
2017-12-25T12:57:22.865Z,10.50
2017-12-25T12:59:50.042Z,10.77
2017-12-25T13:02:16.442Z,11.60
2017-12-25T13:04:43.551Z,11.77
2017-12-25T13:07:09.961Z,11.17
2017-12-25T13:09:36.509Z,11.63
2017-12-25T13:12:02.908Z,10.37
2017-12-25T13:14:29.350Z,10.70
2017-12-25T13:16:55.736Z,9.57
2017-12-25T13:19:22.169Z,10.83
2017-12-25T13:21:48.597Z,10.83
2017-12-25T13:24:15.010Z,11.80
2017-12-25T13:26:41.408Z,12.23
2017-12-25T13:29:07.878Z,10.77
2017-12-25T13:31:34.284Z,12.70
2017-12-25T13:34:00.726Z,10.50
2017-12-25T13:36:27.158Z,11.90
2017-12-25T13:38:53.567Z,11.53
2017-12-25T13:41:19.964Z,11.47
2017-12-25T13:43:47.121Z,13.67
2017-12-25T13:46:14.332Z,13.87
2017-12-25T13:48:40.765Z,13.20
2017-12-25T13:51:07.201Z,13.90
2017-12-25T13:53:33.587Z,11.77
2017-12-25T13:56:00.142Z,6.93
2017-12-25T13:58:26.627Z,12.18
2017-12-25T14:00:52.999Z,12.57
2017-12-25T14:03:19.393Z,13.77
2017-12-25T14:05:46.555Z,12.37
2017-12-25T14:08:12.961Z,12.45
2017-12-25T14:10:40.151Z,13.18
2017-12-25T14:13:06.544Z,10.68
2017-12-25T14:15:33.006Z,10.07
2017-12-25T14:17:59.420Z,7.28
2017-12-25T14:20:26.622Z,5.10
2017-12-25T14:22:53.030Z,9.57
2017-12-25T14:25:19.536Z,10.20
2017-12-25T14:27:46.729Z,11.25
2017-12-25T14:30:13.081Z,9.32
2017-12-25T14:32:39.502Z,10.35
2017-12-25T14:35:05.977Z,8.02
2017-12-25T14:37:32.361Z,9.05
2017-12-25T14:39:58.902Z,10.57
2017-12-25T14:42:25.536Z,13.20
2017-12-25T14:44:51.940Z,13.88
2017-12-25T14:47:25.339Z,11.50
2017-12-25T14:49:51.766Z,9.80
2017-12-25T14:52:18.181Z,11.35
2017-12-25T14:54:45.330Z,10.45
2017-12-25T14:57:12.537Z,10.23
2017-12-25T14:59:38.960Z,11.95
2017-12-25T15:02:05.385Z,12.02
2017-12-25T15:04:31.773Z,15.55
2017-12-25T15:06:58.970Z,16.35
2017-12-25T15:09:25.444Z,15.23
2017-12-25T15:11:51.883Z,16.12
2017-12-25T15:14:18.270Z,14.27
2017-12-25T15:16:44.772Z,13.05
2017-12-25T15:19:11.196Z,14.93
2017-12-25T15:21:37.584Z,12.73
2017-12-25T15:24:04.002Z,13.25
2017-12-25T15:26:30.434Z,13.68
2017-12-25T15:28:56.881Z,6.82
2017-12-25T15:31:23.330Z,14.68
2017-12-25T15:33:49.734Z,14.57
2017-12-25T15:36:16.192Z,15.90
2017-12-25T15:38:42.602Z,14.55
2017-12-25T15:41:09.009Z,13.25
2017-12-25T15:43:35.474Z,20.23
2017-12-25T15:46:01.967Z,16.27
2017-12-25T15:48:28.387Z,16.15
2017-12-25T15:50:55.528Z,18.70
2017-12-25T15:53:22.728Z,23.02
2017-12-25T15:55:49.130Z,13.65
2017-12-25T15:58:15.521Z,12.98
2017-12-25T16:00:41.989Z,13.68
2017-12-25T16:03:08.386Z,7.47
2017-12-25T16:05:34.796Z,10.10
2017-12-25T16:08:01.201Z,12.27
2017-12-25T16:10:27.649Z,14.13
2017-12-25T16:12:54.037Z,12.48
2017-12-25T16:15:21.209Z,14.15
2017-12-25T16:17:47.637Z,8.88
2017-12-25T16:20:14.121Z,8.50
2017-12-25T16:22:40.521Z,13.50
2017-12-25T16:25:06.972Z,14.32
2017-12-25T16:27:33.401Z,16.12
2017-12-25T16:29:59.816Z,14.75
2017-12-25T16:32:26.213Z,16.62
2017-12-25T16:34:53.398Z,15.98
2017-12-25T16:37:19.835Z,13.95
2017-12-25T16:39:46.265Z,16.42
2017-12-25T16:42:12.761Z,17.23
2017-12-25T16:44:40.095Z,16.75
2017-12-25T16:47:06.609Z,13.50
2017-12-25T16:49:32.998Z,14.27
2017-12-25T16:51:59.397Z,14.43
2017-12-25T16:54:26.541Z,15.60
2017-12-25T16:56:52.965Z,14.85
2017-12-25T16:59:19.402Z,15.70
2017-12-25T17:01:45.818Z,17.23
2017-12-25T17:04:12.261Z,15.80
2017-12-25T17:06:38.624Z,13.57
2017-12-25T17:09:05.182Z,14.95
2017-12-25T17:11:32.226Z,15.30
2017-12-25T17:13:58.662Z,5.22
2017-12-25T17:16:25.042Z,7.57
2017-12-25T17:18:51.425Z,12.20
2017-12-25T17:21:17.850Z,7.40
2017-12-25T17:23:44.246Z,12.82
2017-12-25T17:26:11.393Z,14.52
2017-12-25T17:28:38.917Z,14.87
2017-12-25T17:31:05.435Z,14.80
2017-12-25T17:33:31.886Z,15.20
2017-12-25T17:35:58.281Z,13.50
2017-12-25T17:38:24.721Z,17.73
2017-12-25T17:40:52.109Z,14.00
2017-12-25T17:43:18.608Z,14.75
2017-12-25T17:45:45.005Z,14.52
2017-12-25T17:48:12.217Z,15.00
2017-12-25T17:50:38.611Z,15.13
2017-12-25T17:53:05.087Z,14.32
2017-12-25T17:55:31.548Z,13.55
2017-12-25T17:57:58.709Z,16.20
2017-12-25T18:00:25.876Z,15.40
2017-12-25T18:02:52.269Z,17.15
2017-12-25T18:05:18.705Z,16.30
2017-12-25T18:07:45.077Z,16.08
2017-12-25T18:10:11.470Z,16.45
2017-12-25T18:12:37.914Z,15.13
2017-12-25T18:15:05.038Z,17.42
2017-12-25T18:17:31.545Z,16.52
2017-12-25T18:19:57.914Z,16.65
2017-12-25T18:22:24.406Z,16.95
2017-12-25T18:24:50.821Z,18.45
2017-12-25T18:27:17.240Z,17.35
2017-12-25T18:29:43.686Z,17.77
2017-12-25T18:32:10.240Z,16.90
2017-12-25T18:34:36.652Z,15.60
2017-12-25T18:37:03.469Z,16.20
2017-12-25T18:39:30.682Z,16.05
2017-12-25T18:41:57.077Z,16.62
2017-12-25T18:44:23.520Z,16.27
2017-12-25T18:46:49.932Z,16.85
2017-12-25T18:49:16.342Z,18.40
2017-12-25T18:51:43.566Z,18.08
2017-12-25T18:54:09.966Z,16.65
2017-12-25T18:56:36.465Z,16.83
2017-12-25T18:59:03.619Z,17.05
2017-12-25T19:01:30.131Z,17.17
2017-12-25T19:03:56.569Z,18.23
2017-12-25T19:06:23.730Z,18.60
2017-12-25T19:08:50.889Z,20.75
2017-12-25T19:11:17.275Z,18.25
2017-12-25T19:13:43.699Z,19.25
2017-12-25T19:16:10.127Z,19.90
2017-12-25T19:18:36.515Z,20.77
2017-12-25T19:21:03.157Z,19.87
2017-12-25T19:23:29.539Z,19.25
2017-12-25T19:25:56.019Z,18.83
2017-12-25T19:28:22.442Z,40.58
2017-12-25T19:30:49.622Z,28.27
2017-12-25T19:33:16.037Z,24.87
2017-12-25T19:35:42.684Z,23.50
2017-12-25T19:38:16.138Z,22.30
2017-12-25T19:40:42.731Z,20.60
2017-12-25T19:43:10.061Z,21.50
2017-12-25T19:45:36.474Z,21.05
2017-12-25T19:48:02.985Z,20.85
2017-12-25T19:50:29.426Z,22.23
2017-12-25T19:52:55.892Z,23.60
2017-12-25T19:55:22.743Z,20.02
2017-12-25T19:57:49.196Z,21.55
2017-12-25T20:00:15.632Z,24.92
2017-12-25T20:02:42.057Z,22.30
2017-12-25T20:05:08.485Z,25.35
2017-12-25T20:07:34.897Z,23.00
2017-12-25T20:10:01.279Z,26.17
2017-12-25T20:12:27.738Z,23.62
2017-12-25T20:14:54.853Z,23.77
2017-12-25T20:17:21.298Z,24.23
2017-12-25T20:19:48.038Z,23.02
2017-12-25T20:22:14.929Z,24.58
2017-12-25T20:24:41.397Z,23.92
2017-12-25T20:27:08.390Z,22.60
2017-12-25T20:29:35.802Z,23.12
2017-12-25T20:32:02.617Z,24.40
2017-12-25T20:34:29.197Z,23.98
2017-12-25T20:36:56.466Z,23.75
2017-12-25T20:39:23.656Z,21.50
2017-12-25T20:41:50.171Z,20.58
2017-12-25T20:44:16.705Z,21.87
2017-12-25T20:46:43.267Z,22.40
2017-12-25T20:49:09.770Z,23.17
2017-12-25T20:51:36.383Z,24.70
2017-12-25T20:54:04.570Z,23.85
2017-12-25T20:56:31.881Z,22.87
2017-12-25T20:58:58.319Z,21.87
2017-12-25T21:01:24.928Z,20.15
2017-12-25T21:03:51.378Z,23.42
2017-12-25T21:06:17.871Z,21.52
2017-12-25T21:08:44.469Z,22.48
2017-12-25T21:11:11.118Z,22.70
2017-12-25T21:13:38.467Z,23.25
2017-12-25T21:16:05.217Z,22.65
2017-12-25T21:18:31.991Z,26.83
2017-12-25T21:20:58.482Z,24.33
2017-12-25T21:23:25.694Z,23.12
2017-12-25T21:25:52.174Z,24.12
2017-12-25T21:28:19.346Z,21.30
2017-12-25T21:30:45.795Z,20.67
2017-12-25T21:33:12.249Z,25.40
2017-12-25T21:35:38.675Z,22.33
2017-12-25T21:38:05.130Z,25.15
2017-12-25T21:40:31.975Z,24.85
2017-12-25T21:42:58.489Z,25.80
2017-12-25T21:45:25.287Z,25.30
2017-12-25T21:47:52.003Z,25.30
2017-12-25T21:50:19.197Z,23.25
2017-12-25T21:52:47.410Z,24.02
2017-12-25T21:55:13.901Z,22.00
2017-12-25T21:57:40.352Z,22.80
2017-12-25T22:00:06.868Z,24.10
2017-12-25T22:02:33.316Z,24.27
2017-12-25T22:04:59.741Z,23.08
2017-12-25T22:07:26.290Z,24.10
2017-12-25T22:09:52.726Z,24.58
2017-12-25T22:12:19.190Z,24.15
2017-12-25T22:14:46.420Z,23.58
2017-12-25T22:17:12.823Z,22.65
2017-12-25T22:19:39.269Z,23.00
2017-12-25T22:22:05.668Z,24.35
2017-12-25T22:24:32.079Z,21.92
2017-12-25T22:26:59.388Z,21.48
2017-12-25T22:29:25.788Z,24.37
2017-12-25T22:31:59.175Z,19.27
2017-12-25T22:34:25.581Z,20.00
2017-12-25T22:36:52.749Z,20.37
2017-12-25T22:39:19.202Z,28.92
2017-12-25T22:41:45.610Z,22.95
2017-12-25T22:44:12.738Z,21.77
2017-12-25T22:46:39.931Z,20.80
2017-12-25T22:49:06.412Z,20.52
2017-12-25T22:51:32.777Z,20.70
2017-12-25T22:53:59.368Z,22.33
2017-12-25T22:56:25.817Z,22.73
2017-12-25T22:58:52.245Z,26.23
2017-12-25T23:01:18.770Z,23.98
2017-12-25T23:03:45.230Z,23.52
2017-12-25T23:06:12.509Z,23.23
2017-12-25T23:08:38.924Z,22.73
2017-12-25T23:11:06.092Z,23.83
2017-12-25T23:13:32.520Z,21.12
2017-12-25T23:15:58.908Z,18.80
2017-12-25T23:18:25.367Z,19.83
2017-12-25T23:20:52.552Z,20.80
2017-12-25T23:23:18.930Z,20.92
2017-12-25T23:25:45.350Z,20.17
2017-12-25T23:28:11.762Z,19.08
2017-12-25T23:30:38.204Z,19.35
2017-12-25T23:33:04.610Z,18.62
2017-12-25T23:35:30.981Z,19.85
2017-12-25T23:37:57.505Z,19.83
2017-12-25T23:40:23.904Z,20.55
2017-12-25T23:42:50.271Z,20.10
2017-12-25T23:45:16.741Z,19.45
2017-12-25T23:47:43.118Z,20.33
2017-12-25T23:50:09.569Z,20.17
2017-12-25T23:52:35.957Z,22.62
2017-12-25T23:55:02.385Z,21.35
2017-12-25T23:57:28.873Z,21.25
2017-12-25T23:59:55.272Z,21.73
